Sheridan County Airport Sheridan US
ICAO: KSHR
IATA: SHR
Category: Medium
Scheduled Services: Yes

Elevation: 4021 ft
TransAlt. 18000 ft.

Airport Communications:
ASOS:135.175
SALT LAKE CITY CNTR:127.75
CASPER RDO:122.5
CTAF/UNICOM:123

KSHR Zoom In..

If you have problems with the map follow the link
https://www.worldairports.se/pages/airport.php?
ICAO=KSHR

Runways:

(A) RW 05 length 5039 ft width 75 ft
---- / hdg 55

(B) RW 14 length 8301 ft width 100 ft
---- / hdg 143

(C) RW 23 length 5039 ft width 75 ft
---- / hdg 235

(D) RW 32 length 8301 ft width 100 ft
ILS 108.70 / hdg 323

Location; KSHR
Day. 25 / Time. 06.53 Zulu
* Altimeter: 29.90
* Temperature: 00° c. 32°f.
* Wind from: 000° Speed 00 kn.
Dewpoint: -04° c.
Visibility: 10 Statute Miles.
Clouds: Few 8500 ft.

KSHR 250653Z AUTO 00000KT 10SM FEW085 00/M04 A2990 RMK AO2 SLP144 T00001039 401061033


Wind - Calm.

 
 
jpsmedia worldairports.se 2020   terms of use